Time;durP1;ratioP1;P1;durP2;ratioP2;P2;SDS_P1;SDS_P2;PMS_P1;PMS_P2;Temp;Humidity;BMP_temperature;BMP_pressure;BME280_temperature;BME280_humidity;BME280_pressure;Samples;Min_cycle;Max_cycle;Signal;HPM_P1;HPM_P2
2022/01/18 00:01:52;;;;;;;69.57;42.17;;;;;;;6.20;65.25;102336.84;5028235;28;20490;-59
2022/01/18 00:04:20;;;;;;;71.00;41.67;;;;;;;6.17;65.34;102339.50;5030759;28;20486;-60
2022/01/18 00:06:50;;;;;;;74.10;44.45;;;;;;;6.23;65.17;102335.09;5030865;28;20045;-61
2022/01/18 00:09:21;;;;;;;70.95;43.83;;;;;;;6.35;65.19;102341.00;5030875;28;20069;-62
2022/01/18 00:11:56;;;;;;;71.07;43.72;;;;;;;6.47;65.00;102352.16;5030499;28;20057;-60
2022/01/18 00:14:55;;;;;;;69.53;43.30;;;;;;;6.54;65.00;102359.88;5030893;28;20438;-60
2022/01/18 00:17:19;;;;;;;65.43;42.58;;;;;;;6.62;65.30;102356.31;5030386;28;20050;-60
2022/01/18 00:19:55;;;;;;;69.65;43.10;;;;;;;6.65;65.39;102348.44;5029934;28;20038;-60
2022/01/18 00:22:25;;;;;;;65.32;42.03;;;;;;;6.73;65.37;102361.38;5030673;28;20046;-60
2022/01/18 00:24:53;;;;;;;62.55;41.05;;;;;;;6.76;65.50;102369.16;5030759;28;20054;-59
2022/01/18 00:27:25;;;;;;;65.88;41.92;;;;;;;6.77;65.78;102369.13;5029797;28;20092;-59
2022/01/18 00:30:05;;;;;;;68.63;43.13;;;;;;;6.80;65.88;102369.09;5030657;28;20073;-60
2022/01/18 00:35:01;;;;;;;66.38;42.80;;;;;;;6.86;66.14;102391.63;5033332;28;20425;-63
2022/01/18 00:37:35;;;;;;;70.53;43.22;;;;;;;6.85;66.38;102395.97;5034192;28;20490;-61
2022/01/18 00:40:04;;;;;;;66.70;42.80;;;;;;;6.88;66.34;102391.59;5034260;28;20150;-60
2022/01/18 00:42:31;;;;;;;68.47;43.35;;;;;;;6.89;66.25;102401.16;5033849;28;20049;-60
2022/01/18 00:44:58;;;;;;;68.20;43.30;;;;;;;6.85;66.49;102410.78;5034201;28;20111;-60
2022/01/18 00:47:25;;;;;;;62.78;40.95;;;;;;;6.79;66.64;102419.56;5034229;28;20084;-59
2022/01/18 00:50:00;;;;;;;65.45;42.50;;;;;;;6.68;66.51;102432.75;5033938;28;20061;-60
2022/01/18 00:52:30;;;;;;;67.47;42.63;;;;;;;6.48;66.70;102443.41;5033340;28;20461;-60
2022/01/18 00:54:59;;;;;;;67.07;42.13;;;;;;;6.39;66.73;102451.34;5033890;28;20862;-59
2022/01/18 00:57:25;;;;;;;73.95;43.33;;;;;;;6.27;66.55;102460.19;5033785;28;20643;-59
2022/01/18 00:59:52;;;;;;;71.43;44.83;;;;;;;6.21;66.08;102455.88;5034118;28;20045;-60
2022/01/18 01:02:19;;;;;;;73.10;44.00;;;;;;;6.14;66.17;102451.63;5033764;28;20696;-59
2022/01/18 01:04:50;;;;;;;71.53;43.83;;;;;;;6.08;66.00;102450.81;5033831;28;20123;-59
2022/01/18 01:07:22;;;;;;;70.10;43.33;;;;;;;6.04;65.77;102463.00;5032745;28;20045;-60
2022/01/18 01:09:50;;;;;;;70.00;43.88;;;;;;;5.88;65.84;102468.34;5033684;28;20042;-59
2022/01/18 01:12:19;;;;;;;69.13;43.75;;;;;;;5.86;65.83;102469.22;5033245;28;20053;-60
2022/01/18 01:14:49;;;;;;;75.97;44.45;;;;;;;5.86;65.69;102484.88;5033453;28;20494;-60
2022/01/18 01:36:30;;;;;;;74.93;43.85;;;;;;;5.65;64.90;102509.34;5031617;28;20111;-59
2022/01/18 01:46:42;;;;;;;73.72;44.03;;;;;;;5.59;64.87;102506.78;5032898;28;20107;-59
2022/01/18 01:49:13;;;;;;;76.80;44.80;;;;;;;5.56;64.91;102499.84;5032888;28;20083;-60
2022/01/18 01:51:44;;;;;;;71.68;43.83;;;;;;;5.53;64.89;102497.28;5032743;28;20557;-60
2022/01/18 01:54:11;;;;;;;73.88;44.20;;;;;;;5.54;65.04;102499.00;5032986;28;20057;-60
2022/01/18 01:56:39;;;;;;;70.82;43.60;;;;;;;5.50;65.16;102499.91;5031526;28;20128;-59
2022/01/18 01:59:06;;;;;;;78.22;45.00;;;;;;;5.50;65.12;102505.13;5032721;28;20402;-59
2022/01/18 02:01:42;;;;;;;73.88;45.10;;;;;;;5.43;65.07;102500.81;5033001;28;20047;-60
2022/01/18 02:04:09;;;;;;;73.57;43.95;;;;;;;5.36;64.98;102506.06;5032693;28;20053;-60
2022/01/18 02:06:36;;;;;;;69.20;42.50;;;;;;;5.29;64.87;102511.31;5032836;28;20042;-59
2022/01/18 02:09:04;;;;;;;72.40;44.65;;;;;;;5.24;65.04;102500.94;5032520;28;20041;-59
2022/01/18 02:11:31;;;;;;;71.80;42.28;;;;;;;5.17;64.64;102497.50;5031417;28;20383;-60
2022/01/18 02:13:58;;;;;;;71.35;41.72;;;;;;;5.09;64.66;102499.28;5032288;28;20156;-60
2022/01/18 02:21:55;;;;;;;70.70;42.00;;;;;;;5.08;64.12;102497.56;5032384;28;20053;-59
2022/01/18 02:24:23;;;;;;;75.07;43.67;;;;;;;5.11;64.29;102496.69;5032125;28;20092;-60
2022/01/18 02:26:50;;;;;;;70.53;43.15;;;;;;;5.12;64.16;102511.44;5032409;28;20045;-59
2022/01/18 02:29:17;;;;;;;74.93;43.42;;;;;;;5.10;64.49;102516.63;5030930;28;20041;-60
2022/01/18 02:31:44;;;;;;;72.68;43.17;;;;;;;5.05;64.41;102508.84;5032278;28;20111;-59
2022/01/18 02:34:18;;;;;;;72.22;43.40;;;;;;;5.02;64.50;102511.44;5031930;28;20172;-60
2022/01/18 02:36:45;;;;;;;70.50;41.55;;;;;;;5.02;64.18;102502.81;5032159;28;20111;-59
2022/01/18 02:39:17;;;;;;;69.65;42.63;;;;;;;5.00;64.46;102513.22;5031941;28;20089;-60
2022/01/18 02:41:55;;;;;;;70.63;43.08;;;;;;;4.99;64.24;102518.41;5031768;28;20045;-60
2022/01/18 02:44:22;;;;;;;71.47;42.60;;;;;;;4.95;64.36;102519.28;5030825;28;20080;-60
2022/01/18 02:46:49;;;;;;;68.50;41.80;;;;;;;4.91;64.39;102521.03;5031850;28;20045;-59
2022/01/18 02:49:17;;;;;;;70.32;42.25;;;;;;;4.86;64.36;102526.28;5031690;28;20053;-60
2022/01/18 02:51:44;;;;;;;71.63;43.08;;;;;;;4.87;64.22;102528.00;5031662;28;20066;-60
2022/01/18 02:54:17;;;;;;;70.97;41.65;;;;;;;4.82;64.26;102537.53;5031544;28;20509;-60
2022/01/18 02:56:53;;;;;;;68.75;42.30;;;;;;;4.74;64.50;102534.13;5031321;28;20050;-60
2022/01/18 02:59:47;;;;;;;;;;;;;;;4.67;64.32;102543.69;5032059;28;20053;-59
2022/01/18 03:05:13;;;;;;;70.78;41.25;;;;;;;4.73;63.91;102541.03;5031357;28;20041;-59
2022/01/18 03:07:41;;;;;;;66.25;41.15;;;;;;;4.72;64.13;102541.94;5031518;28;20375;-60
2022/01/18 03:10:11;;;;;;;70.10;41.92;;;;;;;4.68;64.18;102540.19;5031322;28;20064;-59
2022/01/18 03:12:38;;;;;;;71.38;40.80;;;;;;;4.69;64.13;102544.53;5031349;28;20103;-60
2022/01/18 03:15:06;;;;;;;65.78;40.10;;;;;;;4.65;64.12;102550.63;5031332;28;20099;-60
2022/01/18 03:17:33;;;;;;;69.68;40.70;;;;;;;4.66;64.02;102557.56;5025661;28;20045;-60
2022/01/18 03:20:00;;;;;;;67.00;40.85;;;;;;;4.64;64.22;102556.69;5022867;28;20486;-61
2022/01/18 03:22:28;;;;;;;68.55;40.53;;;;;;;4.63;64.07;102559.28;5031592;28;20473;-60
2022/01/18 03:30:25;;;;;;;69.05;40.17;;;;;;;4.61;64.38;102563.63;5031563;28;20045;-64
2022/01/18 03:32:51;;;;;;;68.70;40.15;;;;;;;4.61;64.38;102571.41;5031102;28;20064;-59
2022/01/18 03:35:18;;;;;;;67.30;40.58;;;;;;;4.60;64.22;102577.47;5029984;28;20056;-60
2022/01/18 03:37:45;;;;;;;66.05;39.60;;;;;;;4.54;64.60;102567.97;5030916;28;20049;-59
2022/01/18 03:40:12;;;;;;;72.68;42.30;;;;;;;4.50;64.41;102567.09;5031045;28;20053;-60
2022/01/18 03:45:08;;;;;;;68.72;41.80;;;;;;;4.47;64.29;102576.63;5031076;28;20053;-60
2022/01/18 03:47:35;;;;;;;72.00;42.70;;;;;;;4.43;64.40;102580.13;5030963;28;20129;-60
2022/01/18 03:50:04;;;;;;;68.50;41.20;;;;;;;4.45;64.23;102583.59;5031051;28;20049;-60
2022/01/18 03:52:30;;;;;;;67.38;41.28;;;;;;;4.45;64.42;102581.00;5030439;28;20429;-60
2022/01/18 03:55:02;;;;;;;66.85;41.38;;;;;;;4.41;64.60;102596.56;5030911;28;20053;-59
2022/01/18 03:57:29;;;;;;;61.78;39.70;;;;;;;4.40;64.36;102597.44;5031124;28;20441;-60
2022/01/18 03:59:56;;;;;;;66.13;40.10;;;;;;;4.37;64.33;102607.00;5031076;28;20437;-60
2022/01/18 04:02:22;;;;;;;66.13;40.00;;;;;;;4.34;64.34;102609.59;5029333;28;20042;-59
2022/01/18 04:04:49;;;;;;;68.80;40.47;;;;;;;4.30;64.34;102618.25;5026958;28;20560;-60
2022/01/18 04:07:16;;;;;;;68.15;41.67;;;;;;;4.29;64.18;102617.41;5026540;28;20402;-60
2022/01/18 04:09:43;;;;;;;69.50;41.38;;;;;;;4.30;64.06;102626.03;5031362;28;20379;-61
2022/01/18 04:12:10;;;;;;;73.05;41.20;;;;;;;4.28;64.17;102625.16;5031036;28;20414;-63
2022/01/18 04:14:36;;;;;;;75.60;42.63;;;;;;;4.26;64.24;102632.97;5031501;28;20049;-59
2022/01/18 04:27:36;;;;;;;74.10;41.70;;;;;;;4.22;64.28;102646.84;5031140;28;20045;-59
2022/01/18 04:30:05;;;;;;;76.05;41.15;;;;;;;4.23;64.53;102649.44;5031183;28;20097;-64
2022/01/18 04:32:32;;;;;;;70.28;41.90;;;;;;;4.30;64.63;102660.69;5031172;28;20045;-67
2022/01/18 04:34:58;;;;;;;74.75;40.72;;;;;;;4.35;64.68;102660.69;5031080;28;20061;-59
2022/01/18 04:37:25;;;;;;;73.65;40.47;;;;;;;4.36;64.74;102655.50;5031523;28;20456;-61
2022/01/18 04:39:52;;;;;;;71.28;40.67;;;;;;;4.29;64.83;102661.56;5031126;28;20096;-59
2022/01/18 04:42:36;;;;;;;74.63;42.92;;;;;;;4.25;64.96;102654.63;5029449;28;20049;-60
2022/01/18 04:50:34;;;;;;;67.28;40.25;;;;;;;4.22;65.15;102657.22;5031004;28;20382;-60
2022/01/18 04:53:01;;;;;;;75.70;41.13;;;;;;;4.21;65.05;102658.09;5030787;28;20045;-60
2022/01/18 04:55:32;;;;;;;66.55;38.92;;;;;;;4.19;64.96;102657.22;5029578;28;20046;-60
2022/01/18 04:57:59;;;;;;;70.25;40.40;;;;;;;4.18;64.81;102651.16;5030277;28;20429;-60
2022/01/18 05:00:26;;;;;;;68.22;41.20;;;;;;;4.16;64.77;102659.81;5028725;28;20037;-59
2022/01/18 05:02:53;;;;;;;68.97;40.50;;;;;;;4.09;64.77;102667.59;5030699;28;20417;-62
2022/01/18 05:05:24;;;;;;;71.35;39.75;;;;;;;4.10;64.93;102668.44;5030295;28;20528;-60
2022/01/18 05:07:53;;;;;;;75.07;40.92;;;;;;;4.13;64.80;102660.69;5030576;28;20457;-59
2022/01/18 05:10:23;;;;;;;70.50;40.80;;;;;;;4.15;64.67;102652.88;5030043;28;20053;-63
2022/01/18 05:12:53;;;;;;;72.70;39.08;;;;;;;4.17;64.95;102657.22;5030234;28;20046;-60
2022/01/18 05:23:04;;;;;;;67.45;39.03;;;;;;;4.30;65.21;102660.69;5030258;28;20091;-70
2022/01/18 05:25:34;;;;;;;63.35;38.50;;;;;;;4.35;65.33;102660.69;5030222;28;20049;-69
2022/01/18 05:28:04;;;;;;;64.38;38.40;;;;;;;4.41;65.25;102652.91;5030440;28;20053;-59
2022/01/18 05:30:31;;;;;;;64.45;38.83;;;;;;;4.42;65.27;102662.44;5030440;28;20045;-69
2022/01/18 05:32:59;;;;;;;65.47;38.67;;;;;;;4.40;65.44;102664.16;5029150;28;20054;-60
2022/01/18 05:35:27;;;;;;;71.03;40.47;;;;;;;4.36;65.57;102667.63;5030070;28;20041;-60
2022/01/18 05:37:53;;;;;;;63.75;38.60;;;;;;;4.32;65.67;102674.56;5029909;28;20565;-63
2022/01/18 05:40:21;;;;;;;60.92;35.53;;;;;;;4.28;65.64;102682.34;5029808;28;20068;-60
2022/01/18 05:42:48;;;;;;;58.78;35.33;;;;;;;4.25;65.54;102686.69;5029526;28;20084;-60
2022/01/18 05:45:15;;;;;;;64.18;38.38;;;;;;;4.22;65.41;102693.59;5029577;28;20057;-62
2022/01/18 05:47:42;;;;;;;59.75;37.30;;;;;;;4.26;65.37;102687.53;5029593;28;20132;-60
2022/01/18 05:50:11;;;;;;;62.83;35.22;;;;;;;4.21;65.50;102691.88;5028648;28;20045;-60
2022/01/18 05:52:40;;;;;;;59.25;36.72;;;;;;;4.17;65.67;102697.94;5029560;28;20133;-62
2022/01/18 05:55:08;;;;;;;61.72;37.72;;;;;;;4.13;65.50;102704.00;5029304;28;20081;-59
2022/01/18 05:57:35;;;;;;;59.40;36.65;;;;;;;4.06;65.60;102709.19;5029311;28;20524;-69
2022/01/18 06:00:05;;;;;;;66.05;40.75;;;;;;;4.07;65.50;102705.69;5029297;28;20565;-60
2022/01/18 06:03:16;;;;;;;73.85;43.55;;;;;;;4.03;65.62;102709.16;5029313;28;20041;-59
2022/01/18 06:08:12;;;;;;;63.47;38.42;;;;;;;3.97;65.26;102710.88;5028880;28;20057;-60
2022/01/18 06:10:40;;;;;;;64.18;38.22;;;;;;;3.94;65.24;102722.13;5029065;28;20081;-60
2022/01/18 06:13:08;;;;;;;70.20;40.55;;;;;;;3.93;65.48;102728.19;5029069;28;20050;-66
2022/01/18 06:15:35;;;;;;;71.97;42.20;;;;;;;3.96;65.03;102725.59;5029147;28;20257;-59
2022/01/18 06:18:03;;;;;;;70.05;43.88;;;;;;;3.91;65.04;102722.97;5029092;28;20049;-59
2022/01/18 06:20:30;;;;;;;69.28;40.95;;;;;;;3.91;64.92;102729.88;5029282;28;20103;-59
2022/01/18 06:22:57;;;;;;;68.13;40.80;;;;;;;3.89;64.89;102731.63;5028561;28;20053;-59
2022/01/18 06:25:27;;;;;;;64.78;38.97;;;;;;;3.89;64.76;102736.81;5029154;28;20045;-59
2022/01/18 06:27:54;;;;;;;64.68;38.72;;;;;;;3.87;64.67;102746.31;5022820;28;20052;-60
2022/01/18 06:30:21;;;;;;;66.00;38.42;;;;;;;3.85;64.78;102748.94;5020933;28;20485;-59
2022/01/18 06:32:48;;;;;;;64.80;39.22;;;;;;;3.84;64.99;102751.53;5028772;28;20104;-59
2022/01/18 06:35:17;;;;;;;83.07;46.25;;;;;;;3.89;64.73;102762.78;5028565;28;20052;-59
2022/01/18 06:37:44;;;;;;;82.78;47.00;;;;;;;3.87;64.85;102767.09;5028505;28;20057;-60
2022/01/18 06:40:13;;;;;;;79.05;45.45;;;;;;;3.88;65.04;102768.84;5026021;28;20526;-62
2022/01/18 06:42:40;;;;;;;84.97;47.33;;;;;;;3.86;64.74;102773.16;5012633;28;20042;-62
2022/01/18 06:45:18;;;;;;;83.20;48.60;;;;;;;3.83;64.96;102787.00;5028731;28;20045;-60
2022/01/18 06:47:48;;;;;;;90.85;50.20;;;;;;;3.79;65.05;102785.25;5025119;28;20045;-59
2022/01/18 06:50:15;;;;;;;130.07;56.05;;;;;;;3.81;64.86;102796.53;5029729;28;20079;-60
2022/01/18 06:52:42;;;;;;;218.93;87.45;;;;;;;4.01;64.59;102799.22;5029031;28;20072;-67
2022/01/18 06:55:09;;;;;;;243.25;90.75;;;;;;;3.93;65.00;102800.91;5027762;28;21664;-65
2022/01/18 06:57:36;;;;;;;439.58;156.93;;;;;;;3.90;65.13;102803.50;5029386;28;20072;-67
2022/01/18 07:00:05;;;;;;;436.25;174.02;;;;;;;3.85;65.10;102803.47;5028648;28;20076;-65
2022/01/18 07:02:50;;;;;;;312.23;128.90;;;;;;;3.83;64.98;102805.19;5029285;28;20104;-65
2022/01/18 07:05:17;;;;;;;131.07;66.20;;;;;;;4.01;64.86;102811.31;5028722;28;20046;-65
2022/01/18 07:07:47;;;;;;;152.25;77.85;;;;;;;3.91;64.95;102813.00;5029552;28;20968;-65
2022/01/18 07:10:15;;;;;;;108.20;56.90;;;;;;;3.87;64.86;102817.34;5028044;28;20048;-65
2022/01/18 07:12:43;;;;;;;83.60;48.40;;;;;;;3.84;64.79;102824.25;5008816;28;20081;-65
2022/01/18 07:15:10;;;;;;;71.63;41.63;;;;;;;3.81;64.84;102822.50;5016229;28;20050;-65
2022/01/18 07:17:40;;;;;;;69.38;40.38;;;;;;;3.83;64.54;102823.34;5013214;28;20156;-65
2022/01/18 07:20:08;;;;;;;75.55;42.95;;;;;;;3.89;64.18;102828.59;5010564;28;20085;-65
2022/01/18 07:22:35;;;;;;;75.25;43.25;;;;;;;3.92;64.29;102826.03;5011247;28;20052;-65
2022/01/18 07:25:10;;;;;;;74.00;42.90;;;;;;;4.00;64.14;102832.97;5009592;28;20056;-64
2022/01/18 07:27:37;;;;;;;70.87;42.43;;;;;;;4.03;63.88;102849.44;5026508;28;20037;-65
2022/01/18 07:30:04;;;;;;;69.72;42.42;;;;;;;4.19;63.66;102846.91;5027195;28;20056;-65
2022/01/18 07:32:31;;;;;;;71.82;42.60;;;;;;;4.30;63.48;102849.56;5026741;28;20045;-65
2022/01/18 07:34:58;;;;;;;75.80;43.72;;;;;;;4.47;62.92;102849.59;5027314;28;20049;-65
2022/01/18 07:37:25;;;;;;;74.30;43.58;;;;;;;4.61;62.85;102854.84;5028533;28;20049;-64
2022/01/18 07:39:52;;;;;;;72.10;42.58;;;;;;;4.71;62.68;102856.59;5027160;28;20045;-64
2022/01/18 07:42:21;;;;;;;73.28;42.80;;;;;;;4.78;62.66;102865.28;5017357;28;20042;-64
2022/01/18 07:44:51;;;;;;;72.40;43.13;;;;;;;4.85;62.49;102869.63;5024229;28;20486;-64
2022/01/18 07:47:25;;;;;;;76.50;44.90;;;;;;;4.93;62.41;102869.63;5027153;28;20085;-64
2022/01/18 07:50:13;;;;;;;80.53;47.13;;;;;;;4.99;62.55;102875.72;5022123;28;20050;-64
2022/01/18 07:52:42;;;;;;;76.78;44.70;;;;;;;5.06;62.65;102885.25;5027154;28;20038;-64
2022/01/18 07:55:12;;;;;;;77.82;45.67;;;;;;;5.14;62.51;102892.22;5025449;28;22019;-64
2022/01/18 07:57:42;;;;;;;78.20;47.53;;;;;;;5.16;62.60;102887.91;5024805;28;20516;-64
2022/01/18 08:00:18;;;;;;;80.55;49.33;;;;;;;5.13;62.80;102891.38;5026473;28;20107;-64
2022/01/18 08:02:46;;;;;;;81.40;46.63;;;;;;;5.11;63.04;102897.44;5027159;28;20056;-64
2022/01/18 08:05:14;;;;;;;76.10;46.90;;;;;;;5.16;63.06;102899.16;5009459;28;20053;-63
2022/01/18 08:07:41;;;;;;;80.43;46.35;;;;;;;5.13;63.29;102909.59;5014847;28;20073;-64
2022/01/18 08:10:10;;;;;;;81.40;46.35;;;;;;;5.23;63.30;102908.72;5021718;28;20119;-65
2022/01/18 08:12:38;;;;;;;74.10;45.03;;;;;;;5.30;63.43;102909.59;5013426;28;20496;-65
2022/01/18 08:15:14;;;;;;;77.40;45.80;;;;;;;5.44;63.11;102913.94;5026378;28;20056;-65
2022/01/18 08:17:52;;;;;;;74.07;45.65;;;;;;;5.53;63.04;102920.00;5014201;28;20136;-65
2022/01/18 08:20:19;;;;;;;76.72;44.83;;;;;;;5.68;62.85;102924.34;5027104;28;20053;-65
2022/01/18 08:22:46;;;;;;;75.85;45.70;;;;;;;5.82;62.79;102931.28;5026620;28;20056;-66
2022/01/18 08:25:16;;;;;;;77.07;46.22;;;;;;;5.93;62.46;102933.84;5026590;28;20092;-65
2022/01/18 08:27:43;;;;;;;73.70;44.47;;;;;;;6.18;61.92;102929.47;5024366;28;20129;-65
2022/01/18 08:30:11;;;;;;;71.50;44.65;;;;;;;6.49;61.32;102930.25;5026695;28;20053;-65
2022/01/18 08:32:39;;;;;;;75.72;45.47;;;;;;;6.78;60.93;102931.88;5026514;28;20108;-65
2022/01/18 08:35:06;;;;;;;74.75;45.78;;;;;;;7.06;60.32;102925.59;5026162;28;20045;-65
2022/01/18 08:37:33;;;;;;;75.78;45.78;;;;;;;7.30;59.65;102938.50;5026137;28;20422;-65
2022/01/18 08:39:59;;;;;;;72.90;45.90;;;;;;;7.58;59.23;102942.63;5026418;28;20632;-67
2022/01/18 08:42:26;;;;;;;72.57;45.15;;;;;;;7.83;58.68;102938.94;5026489;28;20041;-64
2022/01/18 08:44:54;;;;;;;79.88;47.70;;;;;;;8.14;58.21;102932.50;5017489;28;20072;-65
2022/01/18 08:47:21;;;;;;;78.38;47.17;;;;;;;8.33;57.73;102939.25;5025697;28;20099;-63
2022/01/18 08:49:48;;;;;;;76.20;46.55;;;;;;;8.53;57.41;102938.16;5026625;28;20059;-64
2022/01/18 08:52:15;;;;;;;75.90;46.10;;;;;;;8.69;57.18;102941.47;5026797;28;20133;-64
2022/01/18 08:54:43;;;;;;;73.13;46.92;;;;;;;8.88;56.91;102944.69;5028867;28;20053;-63
2022/01/18 08:57:11;;;;;;;76.38;47.03;;;;;;;9.09;56.67;102946.16;5022170;28;20049;-73
2022/01/18 08:59:39;;;;;;;75.13;47.33;;;;;;;9.24;56.41;102947.69;5029742;28;20045;-63
2022/01/18 09:02:07;;;;;;;73.50;46.85;;;;;;;9.42;56.07;102953.50;5029610;28;20084;-68
2022/01/18 09:04:35;;;;;;;77.47;49.03;;;;;;;9.59;55.76;102951.47;5030431;28;20053;-68
2022/01/18 09:07:07;;;;;;;73.82;48.35;;;;;;;9.69;55.69;102949.56;5029824;28;20408;-62
2022/01/18 09:09:35;;;;;;;78.55;48.78;;;;;;;9.79;55.57;102942.41;5029279;28;20118;-63
2022/01/18 09:12:02;;;;;;;80.03;46.85;;;;;;;9.90;55.42;102943.06;5028890;28;20096;-64
2022/01/18 09:14:29;;;;;;;72.78;47.10;;;;;;;10.01;55.30;102953.34;5029082;28;20100;-63
2022/01/18 09:17:02;;;;;;;76.18;48.25;;;;;;;10.15;55.03;102953.09;5029888;28;20049;-63
2022/01/18 09:19:40;;;;;;;79.40;50.30;;;;;;;10.30;54.82;102959.81;5026800;28;20038;-63
2022/01/18 09:22:13;;;;;;;77.28;49.17;;;;;;;10.44;54.57;102960.41;5029466;28;20153;-63
2022/01/18 09:24:39;;;;;;;72.85;48.92;;;;;;;10.61;54.22;102967.97;5030057;28;20045;-63
2022/01/18 09:27:10;;;;;;;78.25;48.05;;;;;;;10.73;53.87;102966.84;5029601;28;20046;-63
2022/01/18 09:29:40;;;;;;;78.70;51.28;;;;;;;10.87;53.57;102977.03;5018363;28;20077;-63
2022/01/18 09:32:07;;;;;;;75.07;51.15;;;;;;;10.99;53.51;102975.03;5029696;28;20081;-65
2022/01/18 09:34:34;;;;;;;75.60;49.78;;;;;;;11.13;53.17;102980.84;5029576;28;20051;-64
2022/01/18 09:37:01;;;;;;;74.00;47.58;;;;;;;11.24;52.96;102984.09;5029143;28;20061;-64
2022/01/18 09:39:27;;;;;;;69.85;46.75;;;;;;;11.40;52.62;102987.22;5028961;28;20045;-64
2022/01/18 09:41:57;;;;;;;69.47;46.22;;;;;;;11.54;52.44;102992.16;5029232;28;20056;-69
2022/01/18 09:44:24;;;;;;;74.75;47.67;;;;;;;11.66;52.03;102988.34;5025605;28;20037;-64
2022/01/18 09:46:54;;;;;;;72.63;49.17;;;;;;;11.75;51.85;102990.72;5029837;28;20123;-63
2022/01/18 09:49:24;;;;;;;74.78;46.60;;;;;;;11.92;51.58;103000.84;5029317;28;20568;-63
2022/01/18 09:51:51;;;;;;;67.65;47.78;;;;;;;12.04;51.32;102989.16;5016515;28;20042;-63
2022/01/18 09:54:18;;;;;;;69.47;47.80;;;;;;;12.16;51.02;102995.00;5029154;28;20486;-64
2022/01/18 09:56:45;;;;;;;77.93;49.33;;;;;;;12.25;50.83;102990.34;5013209;28;20109;-62
2022/01/18 09:59:11;;;;;;;75.70;47.60;;;;;;;12.37;50.83;102997.03;5016453;28;20066;-64
2022/01/18 10:01:38;;;;;;;73.32;46.78;;;;;;;12.46;50.84;103001.19;5027422;28;20045;-63
2022/01/18 10:04:30;;;;;;;70.18;46.60;;;;;;;12.58;50.38;103005.22;5028875;28;20064;-63
2022/01/18 10:06:57;;;;;;;67.05;45.65;;;;;;;12.68;50.17;103009.31;5028135;28;20042;-63
2022/01/18 10:09:25;;;;;;;66.85;43.60;;;;;;;12.80;49.87;103008.09;5028568;28;20103;-63
2022/01/18 10:12:11;;;;;;;66.68;44.53;;;;;;;12.92;49.37;102998.13;5027646;28;20383;-62
2022/01/18 10:14:43;;;;;;;34.30;22.65;;;;;;;13.33;49.08;103003.84;5027637;28;20421;-61
2022/01/18 10:17:11;;;;;;;42.47;28.02;;;;;;;13.69;48.75;102999.19;5028272;28;20486;-61
2022/01/18 10:19:47;;;;;;;42.72;28.25;;;;;;;13.95;48.66;102991.28;5028793;28;20065;-61
2022/01/18 10:22:20;;;;;;;44.08;30.77;;;;;;;14.17;48.08;102984.34;5027688;28;20045;-61
2022/01/18 10:24:48;;;;;;;42.85;29.58;;;;;;;14.32;48.18;102985.56;5028975;28;20139;-62
2022/01/18 10:27:14;;;;;;;47.63;33.67;;;;;;;14.49;47.54;102978.81;5028583;28;20049;-61
2022/01/18 10:29:51;;;;;;;50.97;35.20;;;;;;;14.60;47.15;102981.91;5028798;28;20045;-62
2022/01/18 10:32:27;;;;;;;50.92;36.13;;;;;;;14.71;46.66;102981.53;5027583;28;20575;-61
2022/01/18 10:37:25;;;;;;;51.47;33.45;;;;;;;14.86;46.25;102982.72;5027494;28;20486;-61
2022/01/18 10:39:55;;;;;;;49.25;33.30;;;;;;;14.97;45.99;102982.28;5025855;28;20049;-61
2022/01/18 10:42:23;;;;;;;55.00;35.17;;;;;;;15.00;45.85;102980.38;5026925;28;20552;-62
2022/01/18 10:45:11;;;;;;;61.35;41.42;;;;;;;14.93;45.76;102985.97;5028208;28;20124;-64
2022/01/18 10:47:48;;;;;;;55.83;39.13;;;;;;;14.76;45.80;102981.34;5018686;28;20056;-64
2022/01/18 10:50:17;;;;;;;58.78;39.05;;;;;;;14.72;45.56;102974.47;5023721;28;20046;-64
2022/01/18 10:52:43;;;;;;;60.78;42.08;;;;;;;14.71;45.17;102976.22;5025959;28;20045;-63
2022/01/18 10:55:17;;;;;;;59.45;40.63;;;;;;;14.70;45.11;102974.50;5011636;28;20065;-63
2022/01/18 10:57:45;;;;;;;54.30;37.90;;;;;;;14.70;44.66;102977.16;5015587;28;20506;-63
2022/01/18 11:00:22;;;;;;;59.97;39.08;;;;;;;14.71;44.28;102975.38;5015822;28;20080;-63
2022/01/18 11:02:51;;;;;;;51.35;34.40;;;;;;;14.73;44.34;102970.88;5018499;28;20065;-64
2022/01/18 11:05:27;;;;;;;51.28;32.85;;;;;;;14.71;44.28;102978.03;5010038;28;20387;-64
2022/01/18 11:07:55;;;;;;;49.60;32.13;;;;;;;14.73;43.78;102973.53;5013769;28;20042;-64
2022/01/18 11:10:31;;;;;;;50.38;32.92;;;;;;;14.73;43.52;102973.53;5027264;28;20037;-64
2022/01/18 11:13:23;;;;;;;48.83;30.23;;;;;;;14.76;43.16;102973.44;5027262;28;20056;-68
2022/01/18 11:15:53;;;;;;;50.38;31.30;;;;;;;14.73;43.08;102968.25;5025537;28;20076;-64
2022/01/18 11:18:30;;;;;;;46.13;31.85;;;;;;;14.62;43.02;102966.00;5026647;28;20506;-64
2022/01/18 11:20:57;;;;;;;47.00;31.92;;;;;;;14.49;43.34;102966.44;5027826;28;20057;-63
2022/01/18 11:23:24;;;;;;;47.75;32.55;;;;;;;14.47;43.26;102980.63;5027681;28;20464;-64
2022/01/18 11:25:58;;;;;;;48.53;30.92;;;;;;;14.34;43.81;102982.88;5027081;28;20087;-64
2022/01/18 11:28:26;;;;;;;50.30;31.98;;;;;;;14.25;44.00;102978.78;5027890;28;20402;-67
2022/01/18 11:30:53;;;;;;;51.20;33.92;;;;;;;14.07;44.42;102988.22;5023165;28;20128;-64
2022/01/18 11:33:24;;;;;;;52.88;35.83;;;;;;;14.02;44.65;102977.81;5009340;28;20049;-64
2022/01/18 11:35:51;;;;;;;51.58;34.00;;;;;;;13.90;44.88;102975.59;5010022;28;20050;-64
2022/01/18 11:38:30;;;;;;;50.17;32.05;;;;;;;13.91;44.74;102972.06;5023126;28;19925;-64
2022/01/18 11:40:58;;;;;;;45.15;29.50;;;;;;;13.95;44.52;102976.31;5025737;28;20075;-65
2022/01/18 11:43:39;;;;;;;40.22;26.30;;;;;;;13.94;44.47;102969.31;5026944;28;20129;-65
2022/01/18 11:46:24;;;;;;;37.45;24.80;;;;;;;13.96;44.30;102972.75;5027022;28;20038;-65
2022/01/18 11:49:02;;;;;;;35.22;23.10;;;;;;;13.94;44.15;102976.38;5027773;28;20524;-64
2022/01/18 11:52:03;;;;;;;37.67;23.73;;;;;;;14.00;43.91;102974.38;5026042;28;20045;-63
2022/01/18 11:54:44;;;;;;;38.33;23.40;;;;;;;14.04;44.08;102973.38;5028053;28;20041;-64
2022/01/18 11:57:23;;;;;;;37.00;23.10;;;;;;;14.04;44.20;102965.44;5027054;28;20041;-64
2022/01/18 12:00:12;;;;;;;38.20;22.77;;;;;;;14.12;44.07;102972.22;5027447;28;20084;-63
2022/01/18 12:02:42;;;;;;;39.10;24.02;;;;;;;14.21;43.66;102964.81;5010067;28;20442;-62
2022/01/18 12:05:14;;;;;;;33.65;21.92;;;;;;;14.25;43.71;102975.28;5027743;28;20048;-63
2022/01/18 12:07:42;;;;;;;34.40;22.05;;;;;;;14.28;43.62;102969.88;5025787;28;20144;-63
2022/01/18 12:10:27;;;;;;;37.22;22.70;;;;;;;14.35;43.63;102968.75;5027189;28;20046;-62
2022/01/18 12:12:55;;;;;;;34.45;20.35;;;;;;;14.41;43.83;102965.00;5017157;28;20422;-62
2022/01/18 12:15:22;;;;;;;37.78;21.30;;;;;;;14.56;44.22;102966.22;5027128;28;20100;-62
2022/01/18 12:17:53;;;;;;;31.98;18.70;;;;;;;14.51;44.11;102958.47;5026696;28;20453;-62
2022/01/18 12:20:35;;;;;;;31.80;18.80;;;;;;;14.61;43.52;102956.34;5027713;28;20042;-62
2022/01/18 12:23:40;;;;;;;30.35;18.50;;;;;;;14.62;43.42;102955.41;5027615;28;20045;-63
2022/01/18 12:26:34;;;;;;;26.63;17.42;;;;;;;14.61;43.39;102957.19;5026706;28;20045;-63
2022/01/18 12:37:17;;;;;;;19.42;14.05;;;;;;;14.83;43.23;102957.25;5031231;28;20499;-63
2022/01/18 12:39:57;;;;;;;22.83;14.70;;;;;;;14.80;43.09;102953.88;5030690;28;20589;-63
2022/01/18 12:45:24;;;;;;;24.05;15.48;;;;;;;14.96;42.69;102956.78;5018242;28;20049;-62
2022/01/18 12:47:58;;;;;;;23.85;14.85;;;;;;;14.97;42.83;102947.91;5031003;28;20050;-64
2022/01/18 12:50:28;;;;;;;27.40;15.90;;;;;;;15.02;42.73;102946.81;5031190;28;20048;-65
2022/01/18 12:53:22;;;;;;;23.10;15.20;;;;;;;15.04;42.96;102946.75;5031345;28;20131;-66
2022/01/18 12:55:57;;;;;;;19.50;12.25;;;;;;;15.08;43.10;102944.84;5031209;28;20084;-65